createdAt,value
2022-09-23T00:01:58.621Z,9.60
2022-09-23T00:05:06.942Z,9.63
2022-09-23T00:08:15.170Z,9.62
2022-09-23T00:11:23.791Z,9.58
2022-09-23T00:14:29.669Z,9.52
2022-09-23T00:17:38.973Z,9.48
2022-09-23T00:20:44.584Z,9.47
2022-09-23T00:23:52.062Z,9.42
2022-09-23T00:26:57.996Z,9.43
2022-09-23T00:30:09.473Z,9.43
2022-09-23T00:33:18.001Z,9.42
2022-09-23T00:36:24.820Z,9.32
2022-09-23T00:39:30.417Z,9.32
2022-09-23T00:42:36.837Z,9.33
2022-09-23T00:45:42.752Z,9.31
2022-09-23T00:49:03.388Z,9.34
2022-09-23T00:52:16.053Z,9.30
2022-09-23T00:55:28.019Z,9.32
2022-09-23T00:58:37.298Z,9.29
2022-09-23T01:01:44.287Z,9.28
2022-09-23T01:04:54.397Z,9.29
2022-09-23T01:08:04.225Z,9.29
2022-09-23T01:11:21.937Z,9.29
2022-09-23T01:14:40.678Z,9.26
2022-09-23T01:17:54.479Z,9.20
2022-09-23T01:21:21.668Z,9.19
2022-09-23T01:24:49.141Z,9.15
2022-09-23T01:28:16.000Z,9.08
2022-09-23T01:31:31.709Z,9.05
2022-09-23T01:34:45.199Z,8.97
2022-09-23T01:37:55.381Z,8.96
2022-09-23T01:41:09.600Z,8.95
2022-09-23T01:44:22.122Z,8.90
2022-09-23T01:47:35.697Z,8.88
2022-09-23T01:51:03.478Z,8.85
2022-09-23T01:54:16.065Z,8.87
2022-09-23T01:57:28.686Z,8.89
2022-09-23T02:00:40.852Z,8.91
2022-09-23T02:03:55.484Z,8.93
2022-09-23T02:07:06.580Z,8.92
2022-09-23T02:10:18.627Z,8.95
2022-09-23T02:13:32.778Z,8.95
2022-09-23T02:16:42.815Z,8.97
2022-09-23T02:19:56.733Z,8.99
2022-09-23T02:23:06.446Z,8.98
2022-09-23T02:26:21.886Z,8.99
2022-09-23T02:29:34.355Z,9.00
2022-09-23T02:32:51.832Z,8.99
2022-09-23T02:36:06.685Z,9.02
2022-09-23T02:39:16.817Z,9.00
2022-09-23T02:42:26.463Z,9.01
2022-09-23T02:45:33.870Z,8.99
2022-09-23T02:48:44.078Z,8.99
2022-09-23T02:51:54.705Z,8.98
2022-09-23T02:55:01.066Z,8.97
2022-09-23T02:58:08.794Z,8.89
2022-09-23T03:01:22.289Z,8.85
2022-09-23T03:04:38.586Z,8.88
2022-09-23T03:07:55.284Z,8.87
2022-09-23T03:11:08.799Z,8.87
2022-09-23T03:14:22.281Z,8.88
2022-09-23T03:17:37.746Z,8.91
2022-09-23T03:20:49.705Z,8.96
2022-09-23T03:24:03.729Z,9.01
2022-09-23T03:27:15.174Z,9.03
2022-09-23T03:30:22.133Z,9.03
2022-09-23T03:33:30.558Z,8.98
2022-09-23T03:36:55.023Z,8.97
2022-09-23T03:40:12.300Z,8.94
2022-09-23T03:43:19.662Z,8.91
2022-09-23T03:46:28.722Z,8.90
2022-09-23T03:49:40.027Z,8.89
2022-09-23T03:52:46.611Z,8.88
2022-09-23T03:55:55.792Z,8.83
2022-09-23T03:59:03.324Z,8.79
2022-09-23T04:02:10.542Z,8.76
2022-09-23T04:05:18.212Z,8.73
2022-09-23T04:08:24.909Z,8.71
2022-09-23T04:11:33.221Z,8.73
2022-09-23T04:14:39.635Z,8.70
2022-09-23T04:17:45.207Z,8.70
2022-09-23T04:20:51.678Z,8.73
2022-09-23T04:23:57.258Z,8.73
2022-09-23T04:27:06.551Z,8.73
2022-09-23T04:30:13.050Z,8.74
2022-09-23T04:33:19.698Z,8.75
2022-09-23T04:36:25.512Z,8.75
2022-09-23T04:39:32.157Z,8.74
2022-09-23T04:42:40.511Z,8.74
2022-09-23T04:45:47.346Z,8.73
2022-09-23T04:48:52.982Z,8.70
2022-09-23T04:51:59.663Z,8.64
2022-09-23T04:55:10.958Z,8.59
2022-09-23T04:58:23.180Z,8.53
2022-09-23T05:01:31.305Z,8.49
2022-09-23T05:04:38.279Z,8.49
2022-09-23T05:07:43.899Z,8.44
2022-09-23T05:10:50.331Z,8.45
2022-09-23T05:13:58.760Z,8.45
2022-09-23T05:17:08.373Z,8.44
2022-09-23T05:20:15.920Z,8.40
2022-09-23T05:23:22.839Z,8.48
2022-09-23T05:26:29.877Z,8.51
2022-09-23T05:29:39.374Z,8.55
2022-09-23T05:32:45.806Z,8.57
2022-09-23T05:35:54.570Z,8.61
2022-09-23T05:39:01.341Z,8.63
2022-09-23T05:42:12.586Z,8.73
2022-09-23T05:45:21.019Z,8.83
2022-09-23T05:48:27.519Z,8.90
2022-09-23T05:51:33.702Z,8.94
2022-09-23T05:54:41.024Z,8.89
2022-09-23T05:57:46.572Z,8.88
2022-09-23T06:00:56.916Z,8.95
2022-09-23T06:04:03.547Z,8.97
2022-09-23T06:07:10.437Z,9.03
2022-09-23T06:10:17.485Z,9.11
2022-09-23T06:13:23.908Z,9.19
2022-09-23T06:16:34.180Z,9.28
2022-09-23T06:19:41.014Z,9.32
2022-09-23T06:22:47.475Z,9.41
2022-09-23T06:25:55.740Z,9.50
2022-09-23T06:29:03.327Z,9.52
2022-09-23T06:32:12.846Z,9.55
2022-09-23T06:35:26.488Z,9.60
2022-09-23T06:38:34.805Z,9.66
2022-09-23T06:41:40.400Z,9.74
2022-09-23T06:44:51.496Z,9.84
2022-09-23T06:48:03.333Z,9.88
2022-09-23T06:51:11.424Z,9.89
2022-09-23T06:54:17.098Z,9.97
2022-09-23T06:57:24.551Z,10.05
2022-09-23T07:00:30.156Z,10.12
2022-09-23T07:03:40.947Z,10.18
2022-09-23T07:06:46.475Z,10.33
2022-09-23T07:09:53.115Z,10.49
2022-09-23T07:12:59.119Z,10.62
2022-09-23T07:16:06.396Z,10.67
2022-09-23T07:19:15.221Z,10.70
2022-09-23T07:22:21.804Z,10.77
2022-09-23T07:25:27.705Z,10.83
2022-09-23T07:28:34.205Z,10.92
2022-09-23T07:31:40.325Z,11.07
2022-09-23T07:34:50.055Z,11.13
2022-09-23T07:37:55.590Z,11.18
2022-09-23T07:41:06.938Z,11.22
2022-09-23T07:44:13.767Z,11.19
2022-09-23T07:47:20.717Z,11.24
2022-09-23T07:50:32.047Z,11.32
2022-09-23T07:53:38.481Z,11.42
2022-09-23T07:56:45.213Z,11.53
2022-09-23T07:59:51.620Z,11.62
2022-09-23T08:03:00.366Z,11.69
2022-09-23T08:06:15.801Z,11.72
2022-09-23T08:09:22.920Z,11.79
2022-09-23T08:12:30.565Z,11.88
2022-09-23T08:15:36.177Z,11.94
2022-09-23T08:18:42.582Z,12.05
2022-09-23T08:21:52.410Z,12.13
2022-09-23T08:24:58.805Z,12.15
2022-09-23T08:28:06.287Z,12.15
2022-09-23T08:31:13.798Z,12.10
2022-09-23T08:34:20.399Z,12.08
2022-09-23T08:37:30.043Z,12.02
2022-09-23T08:40:38.925Z,12.05
2022-09-23T08:43:51.242Z,12.17
2022-09-23T08:47:06.351Z,12.32
2022-09-23T08:50:21.165Z,12.54
2022-09-23T08:53:32.717Z,12.69
2022-09-23T08:56:42.487Z,12.71
2022-09-23T08:59:49.598Z,12.78
2022-09-23T09:02:58.114Z,12.88
2022-09-23T09:06:04.263Z,13.01
2022-09-23T09:09:24.895Z,13.13
2022-09-23T09:12:37.450Z,13.29
2022-09-23T09:15:55.202Z,13.42
2022-09-23T09:19:03.352Z,13.42
2022-09-23T09:22:17.122Z,13.36
2022-09-23T09:25:39.955Z,13.28
2022-09-23T09:28:52.127Z,13.24
2022-09-23T09:31:58.311Z,13.31
2022-09-23T09:35:12.909Z,13.39
2022-09-23T09:38:22.246Z,13.58
2022-09-23T09:41:33.353Z,13.77
2022-09-23T09:44:45.092Z,13.80
2022-09-23T09:47:58.742Z,13.80
2022-09-23T09:51:21.766Z,13.67
2022-09-23T09:54:28.970Z,13.51
2022-09-23T09:57:42.906Z,13.34
2022-09-23T10:00:50.825Z,13.22
2022-09-23T10:03:59.613Z,13.20
2022-09-23T10:07:10.717Z,13.21
2022-09-23T10:10:36.695Z,13.24
2022-09-23T10:14:06.326Z,13.52
2022-09-23T10:17:20.818Z,13.80
2022-09-23T10:20:28.009Z,14.05
2022-09-23T10:23:35.194Z,14.29
2022-09-23T10:26:46.496Z,14.48
2022-09-23T10:29:58.115Z,14.66
2022-09-23T10:33:06.637Z,14.76
2022-09-23T10:36:13.937Z,14.72
2022-09-23T10:39:36.215Z,14.78
2022-09-23T10:43:15.511Z,14.84
2022-09-23T10:46:48.740Z,14.83
2022-09-23T10:50:17.568Z,14.70
2022-09-23T10:53:35.671Z,14.66
2022-09-23T10:56:48.826Z,14.62
2022-09-23T11:00:06.413Z,14.64
2022-09-23T11:03:58.544Z,14.75
2022-09-23T11:07:15.437Z,14.75
2022-09-23T11:11:03.369Z,14.70
2022-09-23T11:14:32.902Z,14.62
2022-09-23T11:18:06.572Z,14.46
2022-09-23T11:21:37.246Z,14.39
2022-09-23T11:25:07.112Z,14.38
2022-09-23T11:28:50.797Z,14.43
2022-09-23T11:32:11.179Z,14.52
2022-09-23T11:35:23.103Z,14.68
2022-09-23T11:38:37.881Z,14.86
2022-09-23T11:41:45.832Z,15.00
2022-09-23T11:44:57.931Z,15.20
2022-09-23T11:48:08.629Z,15.16
2022-09-23T11:51:19.356Z,15.11
2022-09-23T11:54:34.979Z,15.01
2022-09-23T11:57:49.613Z,14.90
2022-09-23T12:01:03.453Z,14.91
2022-09-23T12:04:20.470Z,14.85
2022-09-23T12:07:32.981Z,14.84
2022-09-23T12:10:52.743Z,14.87
2022-09-23T12:14:10.561Z,14.85
2022-09-23T12:17:35.319Z,14.90
2022-09-23T12:21:06.385Z,14.97
2022-09-23T12:24:47.607Z,15.05
2022-09-23T12:27:59.230Z,15.17
2022-09-23T12:31:08.998Z,15.38
2022-09-23T12:34:26.469Z,15.52
2022-09-23T12:37:37.406Z,15.66
2022-09-23T12:40:44.930Z,15.71
2022-09-23T12:43:58.314Z,15.78
2022-09-23T12:47:34.062Z,15.64
2022-09-23T12:50:54.456Z,15.51
2022-09-23T12:54:26.579Z,15.32
2022-09-23T12:57:45.672Z,15.21
2022-09-23T13:01:09.901Z,15.05
2022-09-23T13:04:53.132Z,14.91
2022-09-23T13:08:06.044Z,14.72
2022-09-23T13:11:22.016Z,14.59
2022-09-23T13:14:30.770Z,14.52
2022-09-23T13:17:40.795Z,14.52
2022-09-23T13:20:48.540Z,14.51
2022-09-23T13:24:23.386Z,14.58
2022-09-23T13:27:35.842Z,14.59
2022-09-23T13:30:52.443Z,14.62
2022-09-23T13:34:07.612Z,14.65
2022-09-23T13:37:22.902Z,14.63
2022-09-23T13:40:31.833Z,14.53
2022-09-23T13:43:41.647Z,14.50
2022-09-23T13:46:53.067Z,14.54
2022-09-23T13:50:03.207Z,14.55
2022-09-23T13:53:13.564Z,14.53
2022-09-23T13:56:19.422Z,14.47
2022-09-23T13:59:32.402Z,14.41
2022-09-23T14:02:45.571Z,14.40
2022-09-23T14:05:56.120Z,14.37
2022-09-23T14:09:06.621Z,14.30
2022-09-23T14:12:14.447Z,14.33
2022-09-23T14:15:22.783Z,14.37
2022-09-23T14:18:35.123Z,14.48
2022-09-23T14:21:43.615Z,14.57
2022-09-23T14:24:51.530Z,14.62
2022-09-23T14:28:00.369Z,14.60
2022-09-23T14:31:08.704Z,14.58
2022-09-23T14:34:42.256Z,14.70
2022-09-23T14:38:09.381Z,14.80
2022-09-23T14:41:25.045Z,14.89
2022-09-23T14:44:33.461Z,14.93
2022-09-23T14:47:39.577Z,14.89
2022-09-23T14:50:51.552Z,14.84
2022-09-23T14:54:27.400Z,14.81
2022-09-23T14:57:34.285Z,14.67
2022-09-23T15:00:39.994Z,14.57
2022-09-23T15:03:50.751Z,14.49
2022-09-23T15:07:03.382Z,14.50
2022-09-23T15:10:23.809Z,14.56
2022-09-23T15:13:32.971Z,14.63
2022-09-23T15:16:42.058Z,14.71
2022-09-23T15:19:52.701Z,14.78
2022-09-23T15:22:59.510Z,14.83
2022-09-23T15:26:14.707Z,14.92
2022-09-23T15:29:21.487Z,14.98
2022-09-23T15:32:27.311Z,14.95
2022-09-23T15:35:35.221Z,14.86
2022-09-23T15:38:45.249Z,14.75
2022-09-23T15:41:54.425Z,14.63
2022-09-23T15:45:01.164Z,14.44
2022-09-23T15:48:13.806Z,14.32
2022-09-23T15:51:19.785Z,14.20
2022-09-23T15:54:26.369Z,14.09
2022-09-23T15:57:34.703Z,14.01
2022-09-23T16:00:41.345Z,13.93
2022-09-23T16:03:46.965Z,13.85
2022-09-23T16:06:53.375Z,13.79
2022-09-23T16:09:59.026Z,13.75
2022-09-23T16:13:13.974Z,13.70
2022-09-23T16:16:21.530Z,13.61
2022-09-23T16:19:28.092Z,13.56
2022-09-23T16:22:34.220Z,13.51
2022-09-23T16:25:40.991Z,13.48
2022-09-23T16:28:51.191Z,13.44
2022-09-23T16:31:57.670Z,13.40
2022-09-23T16:35:03.578Z,13.35
2022-09-23T16:38:10.035Z,13.24
2022-09-23T16:41:15.644Z,13.10
2022-09-23T16:44:25.051Z,12.98
2022-09-23T16:47:30.702Z,12.89
2022-09-23T16:50:37.773Z,12.80
2022-09-23T16:53:44.346Z,12.72
2022-09-23T16:56:50.927Z,12.65
2022-09-23T17:00:15.316Z,12.57
2022-09-23T17:03:37.608Z,12.50
2022-09-23T17:06:46.503Z,12.37
2022-09-23T17:09:53.614Z,12.27
2022-09-23T17:13:01.244Z,12.15
2022-09-23T17:16:11.998Z,12.05
2022-09-23T17:19:17.850Z,11.93
2022-09-23T17:22:24.306Z,11.83
2022-09-23T17:25:30.246Z,11.74
2022-09-23T17:28:36.653Z,11.63
2022-09-23T17:31:45.061Z,11.56
2022-09-23T17:34:54.363Z,11.47
2022-09-23T17:37:59.933Z,11.41
2022-09-23T17:41:10.245Z,11.34
2022-09-23T17:44:17.763Z,11.27
2022-09-23T17:47:27.224Z,11.19
2022-09-23T17:50:33.695Z,11.12
2022-09-23T17:53:42.374Z,11.07
2022-09-23T17:56:48.002Z,10.98
2022-09-23T17:59:56.221Z,10.90
2022-09-23T18:03:06.362Z,10.86
2022-09-23T18:06:15.662Z,10.79
2022-09-23T18:09:22.091Z,10.71
2022-09-23T18:12:28.541Z,10.64
2022-09-23T18:15:34.223Z,10.58
2022-09-23T18:18:43.473Z,10.53
2022-09-23T18:21:51.179Z,10.47
2022-09-23T18:24:57.674Z,10.43
2022-09-23T18:28:03.394Z,10.37
2022-09-23T18:31:10.181Z,10.32
2022-09-23T18:34:20.454Z,10.25
2022-09-23T18:37:26.992Z,10.21
2022-09-23T18:40:34.562Z,10.18
2022-09-23T18:43:46.326Z,10.13
2022-09-23T18:46:54.085Z,10.09
2022-09-23T18:50:18.974Z,10.01
2022-09-23T18:53:24.540Z,9.98
2022-09-23T18:56:37.407Z,9.95
2022-09-23T18:59:44.565Z,9.91
2022-09-23T19:02:51.066Z,9.87
2022-09-23T19:06:06.632Z,9.85
2022-09-23T19:09:13.822Z,9.78
2022-09-23T19:12:19.411Z,9.75
2022-09-23T19:15:25.893Z,9.71
2022-09-23T19:18:31.603Z,9.67
2022-09-23T19:21:40.846Z,9.66
2022-09-23T19:24:46.502Z,9.62
2022-09-23T19:27:54.013Z,9.59
2022-09-23T19:30:59.673Z,9.54
2022-09-23T19:34:10.890Z,9.48
2022-09-23T19:37:19.374Z,9.49
2022-09-23T19:40:25.975Z,9.46
2022-09-23T19:43:31.689Z,9.43
2022-09-23T19:46:40.898Z,9.41
2022-09-23T19:49:47.555Z,9.39
2022-09-23T19:52:56.832Z,9.36
2022-09-23T19:56:06.356Z,9.33
2022-09-23T19:59:17.788Z,9.32
2022-09-23T20:02:24.403Z,9.29
2022-09-23T20:05:31.099Z,9.25
2022-09-23T20:08:41.836Z,9.23
2022-09-23T20:11:48.352Z,9.18
2022-09-23T20:14:53.966Z,9.15
2022-09-23T20:18:00.403Z,9.13
2022-09-23T20:21:08.837Z,9.11
2022-09-23T20:24:18.070Z,9.09
2022-09-23T20:27:23.725Z,9.03
2022-09-23T20:30:30.144Z,9.03
2022-09-23T20:33:35.826Z,8.99
2022-09-23T20:36:44.384Z,8.97
2022-09-23T20:39:54.326Z,8.97
2022-09-23T20:43:04.489Z,8.94
2022-09-23T20:46:10.046Z,8.91
2022-09-23T20:49:16.677Z,8.88
2022-09-23T20:52:23.064Z,8.86
2022-09-23T20:55:32.861Z,8.81
2022-09-23T20:58:39.284Z,8.78
2022-09-23T21:01:48.050Z,8.75
2022-09-23T21:04:53.692Z,8.71
2022-09-23T21:08:03.091Z,8.68
2022-09-23T21:11:15.218Z,8.65
2022-09-23T21:14:22.294Z,8.63
2022-09-23T21:17:28.174Z,8.65
2022-09-23T21:20:34.846Z,8.63
2022-09-23T21:23:42.128Z,8.61
2022-09-23T21:26:51.576Z,8.58
2022-09-23T21:29:57.128Z,8.54
2022-09-23T21:33:03.533Z,8.51
2022-09-23T21:36:10.727Z,8.45
2022-09-23T21:39:17.164Z,8.40
2022-09-23T21:42:25.895Z,8.39
2022-09-23T21:45:32.293Z,8.35
2022-09-23T21:48:41.236Z,8.34
2022-09-23T21:51:47.768Z,8.34
2022-09-23T21:54:53.381Z,8.32
2022-09-23T21:58:03.375Z,8.30
2022-09-23T22:01:13.508Z,8.27
2022-09-23T22:04:22.026Z,8.22
2022-09-23T22:07:27.675Z,8.19
2022-09-23T22:10:34.044Z,8.16
2022-09-23T22:13:42.372Z,8.15
2022-09-23T22:16:48.968Z,8.13
2022-09-23T22:19:54.516Z,8.13
2022-09-23T22:23:00.905Z,8.12
2022-09-23T22:26:07.056Z,8.13
2022-09-23T22:29:33.316Z,8.17
2022-09-23T22:32:54.251Z,8.22
2022-09-23T22:36:05.828Z,8.30
2022-09-23T22:39:11.360Z,8.34
2022-09-23T22:42:18.272Z,8.35
2022-09-23T22:45:27.125Z,8.31
2022-09-23T22:48:33.817Z,8.38
2022-09-23T22:51:40.698Z,8.40
2022-09-23T22:54:47.107Z,8.44
2022-09-23T22:57:53.496Z,8.46
2022-09-23T23:01:02.855Z,8.47
2022-09-23T23:04:08.938Z,8.48
2022-09-23T23:07:16.453Z,8.50
2022-09-23T23:10:25.004Z,8.49
2022-09-23T23:13:34.473Z,8.48
2022-09-23T23:16:44.112Z,8.49
2022-09-23T23:19:50.686Z,8.50
2022-09-23T23:22:56.539Z,8.52
2022-09-23T23:26:10.110Z,8.50
2022-09-23T23:29:18.259Z,8.49
2022-09-23T23:32:27.503Z,8.50
2022-09-23T23:35:33.138Z,8.51
2022-09-23T23:38:40.476Z,8.51
2022-09-23T23:41:46.291Z,8.53
2022-09-23T23:44:52.701Z,8.52
2022-09-23T23:48:01.047Z,8.51
2022-09-23T23:51:11.050Z,8.49
2022-09-23T23:54:17.386Z,8.44
2022-09-23T23:57:24.090Z,8.43
